sensor_id;sensor_type;location;lat;lon;timestamp;P1;durP1;ratioP1;P2;durP2;ratioP2
2724;SDS011;1370;52.596;13.112;2022-09-25T00:00:19;16.10;;;14.40;;
2724;SDS011;1370;52.596;13.112;2022-09-25T00:02:44;15.17;;;13.77;;
2724;SDS011;1370;52.596;13.112;2022-09-25T00:05:10;15.80;;;14.40;;
2724;SDS011;1370;52.596;13.112;2022-09-25T00:07:35;16.40;;;14.90;;
2724;SDS011;1370;52.596;13.112;2022-09-25T00:10:00;16.27;;;14.57;;
2724;SDS011;1370;52.596;13.112;2022-09-25T00:12:26;18.20;;;16.33;;
2724;SDS011;1370;52.596;13.112;2022-09-25T00:14:51;16.83;;;14.43;;
2724;SDS011;1370;52.596;13.112;2022-09-25T00:17:16;15.33;;;13.23;;
2724;SDS011;1370;52.596;13.112;2022-09-25T00:19:42;16.10;;;14.63;;
2724;SDS011;1370;52.596;13.112;2022-09-25T00:22:19;15.50;;;14.00;;
2724;SDS011;1370;52.596;13.112;2022-09-25T00:24:46;16.27;;;13.73;;
2724;SDS011;1370;52.596;13.112;2022-09-25T00:27:11;14.77;;;13.57;;
2724;SDS011;1370;52.596;13.112;2022-09-25T00:29:37;15.03;;;13.57;;
2724;SDS011;1370;52.596;13.112;2022-09-25T00:32:03;15.57;;;14.17;;
2724;SDS011;1370;52.596;13.112;2022-09-25T00:34:29;17.37;;;15.77;;
2724;SDS011;1370;52.596;13.112;2022-09-25T00:36:54;16.47;;;14.97;;
2724;SDS011;1370;52.596;13.112;2022-09-25T00:39:19;16.17;;;14.50;;
2724;SDS011;1370;52.596;13.112;2022-09-25T00:41:44;15.27;;;13.80;;
2724;SDS011;1370;52.596;13.112;2022-09-25T00:47:18;15.70;;;13.70;;
2724;SDS011;1370;52.596;13.112;2022-09-25T00:49:44;15.20;;;13.70;;
2724;SDS011;1370;52.596;13.112;2022-09-25T00:52:10;16.87;;;14.90;;
2724;SDS011;1370;52.596;13.112;2022-09-25T00:54:51;15.00;;;13.70;;
2724;SDS011;1370;52.596;13.112;2022-09-25T00:57:19;16.67;;;15.00;;
2724;SDS011;1370;52.596;13.112;2022-09-25T00:59:48;17.27;;;15.47;;
2724;SDS011;1370;52.596;13.112;2022-09-25T01:02:18;15.77;;;14.27;;
2724;SDS011;1370;52.596;13.112;2022-09-25T01:04:48;16.67;;;14.50;;
2724;SDS011;1370;52.596;13.112;2022-09-25T01:07:14;15.97;;;14.57;;
2724;SDS011;1370;52.596;13.112;2022-09-25T01:09:40;16.30;;;14.63;;
2724;SDS011;1370;52.596;13.112;2022-09-25T01:12:05;17.00;;;14.87;;
2724;SDS011;1370;52.596;13.112;2022-09-25T01:14:31;16.37;;;14.17;;
2724;SDS011;1370;52.596;13.112;2022-09-25T01:17:00;14.83;;;13.53;;
2724;SDS011;1370;52.596;13.112;2022-09-25T01:19:57;14.27;;;12.83;;
2724;SDS011;1370;52.596;13.112;2022-09-25T01:25:42;14.07;;;12.50;;
2724;SDS011;1370;52.596;13.112;2022-09-25T01:28:22;13.63;;;12.23;;
2724;SDS011;1370;52.596;13.112;2022-09-25T01:31:06;13.50;;;12.23;;
2724;SDS011;1370;52.596;13.112;2022-09-25T01:33:42;14.00;;;12.70;;
2724;SDS011;1370;52.596;13.112;2022-09-25T01:36:14;14.80;;;13.10;;
2724;SDS011;1370;52.596;13.112;2022-09-25T01:38:49;13.57;;;12.33;;
2724;SDS011;1370;52.596;13.112;2022-09-25T01:41:39;13.40;;;12.27;;
2724;SDS011;1370;52.596;13.112;2022-09-25T01:44:09;14.13;;;12.73;;
2724;SDS011;1370;52.596;13.112;2022-09-25T01:46:45;18.60;;;15.60;;
2724;SDS011;1370;52.596;13.112;2022-09-25T01:51:54;14.83;;;13.33;;
2724;SDS011;1370;52.596;13.112;2022-09-25T01:54:21;14.17;;;12.87;;
2724;SDS011;1370;52.596;13.112;2022-09-25T01:56:54;18.40;;;15.73;;
2724;SDS011;1370;52.596;13.112;2022-09-25T01:59:24;13.23;;;12.23;;
2724;SDS011;1370;52.596;13.112;2022-09-25T02:01:54;15.53;;;14.13;;
2724;SDS011;1370;52.596;13.112;2022-09-25T02:04:24;14.93;;;13.63;;
2724;SDS011;1370;52.596;13.112;2022-09-25T02:06:59;14.63;;;13.17;;
2724;SDS011;1370;52.596;13.112;2022-09-25T02:09:35;15.43;;;13.97;;
2724;SDS011;1370;52.596;13.112;2022-09-25T02:12:08;14.33;;;12.83;;
2724;SDS011;1370;52.596;13.112;2022-09-25T02:14:47;14.63;;;13.30;;
2724;SDS011;1370;52.596;13.112;2022-09-25T02:17:19;13.93;;;12.67;;
2724;SDS011;1370;52.596;13.112;2022-09-25T02:20:07;15.43;;;13.83;;
2724;SDS011;1370;52.596;13.112;2022-09-25T02:22:51;14.67;;;13.40;;
2724;SDS011;1370;52.596;13.112;2022-09-25T02:25:19;13.73;;;12.47;;
2724;SDS011;1370;52.596;13.112;2022-09-25T02:27:51;15.47;;;13.97;;
2724;SDS011;1370;52.596;13.112;2022-09-25T02:30:17;14.93;;;13.30;;
2724;SDS011;1370;52.596;13.112;2022-09-25T02:32:43;12.57;;;11.43;;
2724;SDS011;1370;52.596;13.112;2022-09-25T02:35:08;13.57;;;12.37;;
2724;SDS011;1370;52.596;13.112;2022-09-25T02:37:33;13.73;;;12.43;;
2724;SDS011;1370;52.596;13.112;2022-09-25T02:39:59;14.63;;;13.07;;
2724;SDS011;1370;52.596;13.112;2022-09-25T02:48:07;13.10;;;11.90;;
2724;SDS011;1370;52.596;13.112;2022-09-25T02:50:56;12.97;;;11.77;;
2724;SDS011;1370;52.596;13.112;2022-09-25T02:53:33;12.83;;;11.60;;
2724;SDS011;1370;52.596;13.112;2022-09-25T02:56:19;14.77;;;13.30;;
2724;SDS011;1370;52.596;13.112;2022-09-25T02:58:51;13.20;;;12.03;;
2724;SDS011;1370;52.596;13.112;2022-09-25T03:01:22;13.30;;;12.10;;
2724;SDS011;1370;52.596;13.112;2022-09-25T03:03:49;13.03;;;11.73;;
2724;SDS011;1370;52.596;13.112;2022-09-25T03:06:16;11.87;;;10.97;;
2724;SDS011;1370;52.596;13.112;2022-09-25T03:08:45;13.17;;;11.87;;
2724;SDS011;1370;52.596;13.112;2022-09-25T03:11:16;14.03;;;12.70;;
2724;SDS011;1370;52.596;13.112;2022-09-25T03:13:43;14.73;;;12.87;;
2724;SDS011;1370;52.596;13.112;2022-09-25T03:18:44;13.57;;;12.40;;
2724;SDS011;1370;52.596;13.112;2022-09-25T03:21:09;14.33;;;12.27;;
2724;SDS011;1370;52.596;13.112;2022-09-25T03:23:35;13.80;;;12.40;;
2724;SDS011;1370;52.596;13.112;2022-09-25T03:26:00;12.47;;;11.23;;
2724;SDS011;1370;52.596;13.112;2022-09-25T03:28:25;12.10;;;11.00;;
2724;SDS011;1370;52.596;13.112;2022-09-25T03:30:54;12.43;;;11.27;;
2724;SDS011;1370;52.596;13.112;2022-09-25T03:33:34;11.77;;;10.77;;
2724;SDS011;1370;52.596;13.112;2022-09-25T03:36:05;11.10;;;10.30;;
2724;SDS011;1370;52.596;13.112;2022-09-25T03:38:38;12.57;;;11.37;;
2724;SDS011;1370;52.596;13.112;2022-09-25T03:41:05;12.00;;;10.70;;
2724;SDS011;1370;52.596;13.112;2022-09-25T03:43:33;11.70;;;10.70;;
2724;SDS011;1370;52.596;13.112;2022-09-25T03:46:00;12.53;;;11.40;;
2724;SDS011;1370;52.596;13.112;2022-09-25T03:48:25;12.13;;;11.07;;
2724;SDS011;1370;52.596;13.112;2022-09-25T03:50:51;11.70;;;10.70;;
2724;SDS011;1370;52.596;13.112;2022-09-25T03:53:17;11.87;;;10.83;;
2724;SDS011;1370;52.596;13.112;2022-09-25T03:55:42;13.30;;;11.13;;
2724;SDS011;1370;52.596;13.112;2022-09-25T03:58:10;12.33;;;11.27;;
2724;SDS011;1370;52.596;13.112;2022-09-25T04:00:36;11.93;;;10.87;;
2724;SDS011;1370;52.596;13.112;2022-09-25T04:03:01;12.50;;;11.40;;
2724;SDS011;1370;52.596;13.112;2022-09-25T04:05:26;11.93;;;10.80;;
2724;SDS011;1370;52.596;13.112;2022-09-25T04:07:52;13.67;;;12.33;;
2724;SDS011;1370;52.596;13.112;2022-09-25T04:10:17;11.50;;;10.30;;
2724;SDS011;1370;52.596;13.112;2022-09-25T04:12:42;11.63;;;10.63;;
2724;SDS011;1370;52.596;13.112;2022-09-25T04:15:08;10.50;;;9.70;;
2724;SDS011;1370;52.596;13.112;2022-09-25T04:17:33;12.27;;;11.30;;
2724;SDS011;1370;52.596;13.112;2022-09-25T04:19:59;11.60;;;10.80;;
2724;SDS011;1370;52.596;13.112;2022-09-25T04:22:25;11.87;;;10.80;;
2724;SDS011;1370;52.596;13.112;2022-09-25T04:24:50;13.07;;;12.00;;
2724;SDS011;1370;52.596;13.112;2022-09-25T04:27:19;11.77;;;10.80;;
2724;SDS011;1370;52.596;13.112;2022-09-25T04:29:46;11.87;;;10.90;;
2724;SDS011;1370;52.596;13.112;2022-09-25T04:32:13;11.27;;;10.27;;
2724;SDS011;1370;52.596;13.112;2022-09-25T04:34:57;12.03;;;10.83;;
2724;SDS011;1370;52.596;13.112;2022-09-25T04:37:23;12.20;;;11.10;;
2724;SDS011;1370;52.596;13.112;2022-09-25T04:39:50;12.93;;;11.80;;
2724;SDS011;1370;52.596;13.112;2022-09-25T04:42:22;12.00;;;10.87;;
2724;SDS011;1370;52.596;13.112;2022-09-25T04:44:49;11.20;;;10.30;;
2724;SDS011;1370;52.596;13.112;2022-09-25T04:47:18;14.02;;;12.93;;
2724;SDS011;1370;52.596;13.112;2022-09-25T04:49:46;12.90;;;11.73;;
2724;SDS011;1370;52.596;13.112;2022-09-25T04:52:12;12.27;;;11.20;;
2724;SDS011;1370;52.596;13.112;2022-09-25T04:54:39;13.10;;;11.90;;
2724;SDS011;1370;52.596;13.112;2022-09-25T04:57:04;12.30;;;11.20;;
2724;SDS011;1370;52.596;13.112;2022-09-25T04:59:29;13.40;;;12.30;;
2724;SDS011;1370;52.596;13.112;2022-09-25T05:01:55;13.20;;;12.17;;
2724;SDS011;1370;52.596;13.112;2022-09-25T05:04:20;14.93;;;13.30;;
2724;SDS011;1370;52.596;13.112;2022-09-25T05:06:45;13.60;;;11.87;;
2724;SDS011;1370;52.596;13.112;2022-09-25T05:09:11;12.23;;;11.30;;
2724;SDS011;1370;52.596;13.112;2022-09-25T05:11:36;13.80;;;12.50;;
2724;SDS011;1370;52.596;13.112;2022-09-25T05:14:01;14.60;;;12.30;;
2724;SDS011;1370;52.596;13.112;2022-09-25T05:16:27;12.80;;;11.40;;
2724;SDS011;1370;52.596;13.112;2022-09-25T05:18:54;13.43;;;12.13;;
2724;SDS011;1370;52.596;13.112;2022-09-25T05:21:20;13.93;;;12.50;;
2724;SDS011;1370;52.596;13.112;2022-09-25T05:23:45;13.67;;;12.27;;
2724;SDS011;1370;52.596;13.112;2022-09-25T05:26:11;12.27;;;11.10;;
2724;SDS011;1370;52.596;13.112;2022-09-25T05:28:36;12.70;;;11.50;;
2724;SDS011;1370;52.596;13.112;2022-09-25T05:31:01;12.53;;;11.33;;
2724;SDS011;1370;52.596;13.112;2022-09-25T05:33:28;12.23;;;11.00;;
2724;SDS011;1370;52.596;13.112;2022-09-25T05:35:54;13.33;;;11.90;;
2724;SDS011;1370;52.596;13.112;2022-09-25T05:38:19;14.00;;;12.70;;
2724;SDS011;1370;52.596;13.112;2022-09-25T05:40:44;13.43;;;12.23;;
2724;SDS011;1370;52.596;13.112;2022-09-25T05:43:10;13.50;;;12.00;;
2724;SDS011;1370;52.596;13.112;2022-09-25T05:45:36;12.57;;;11.57;;
2724;SDS011;1370;52.596;13.112;2022-09-25T05:48:02;14.57;;;13.07;;
2724;SDS011;1370;52.596;13.112;2022-09-25T05:50:28;13.70;;;12.33;;
2724;SDS011;1370;52.596;13.112;2022-09-25T05:52:56;13.33;;;12.00;;
2724;SDS011;1370;52.596;13.112;2022-09-25T05:55:22;13.23;;;12.13;;
2724;SDS011;1370;52.596;13.112;2022-09-25T05:57:47;13.23;;;12.10;;
2724;SDS011;1370;52.596;13.112;2022-09-25T06:00:12;11.60;;;10.60;;
2724;SDS011;1370;52.596;13.112;2022-09-25T06:02:39;12.33;;;11.20;;
2724;SDS011;1370;52.596;13.112;2022-09-25T06:05:04;12.40;;;11.23;;
2724;SDS011;1370;52.596;13.112;2022-09-25T06:07:29;12.47;;;10.63;;
2724;SDS011;1370;52.596;13.112;2022-09-25T06:09:54;14.53;;;13.17;;
2724;SDS011;1370;52.596;13.112;2022-09-25T06:12:20;11.93;;;11.00;;
2724;SDS011;1370;52.596;13.112;2022-09-25T06:14:47;13.20;;;11.47;;
2724;SDS011;1370;52.596;13.112;2022-09-25T06:17:12;11.77;;;10.73;;
2724;SDS011;1370;52.596;13.112;2022-09-25T06:19:38;12.47;;;11.37;;
2724;SDS011;1370;52.596;13.112;2022-09-25T06:22:03;12.90;;;11.80;;
2724;SDS011;1370;52.596;13.112;2022-09-25T06:24:28;17.17;;;11.97;;
2724;SDS011;1370;52.596;13.112;2022-09-25T06:26:53;13.60;;;12.40;;
2724;SDS011;1370;52.596;13.112;2022-09-25T06:29:19;15.30;;;13.67;;
2724;SDS011;1370;52.596;13.112;2022-09-25T06:31:45;12.63;;;11.57;;
2724;SDS011;1370;52.596;13.112;2022-09-25T06:34:14;15.93;;;13.03;;
2724;SDS011;1370;52.596;13.112;2022-09-25T06:36:39;13.60;;;12.40;;
2724;SDS011;1370;52.596;13.112;2022-09-25T06:39:04;14.73;;;13.33;;
2724;SDS011;1370;52.596;13.112;2022-09-25T06:41:30;15.90;;;14.30;;
2724;SDS011;1370;52.596;13.112;2022-09-25T06:43:56;15.77;;;14.13;;
2724;SDS011;1370;52.596;13.112;2022-09-25T06:46:21;15.83;;;14.30;;
2724;SDS011;1370;52.596;13.112;2022-09-25T06:48:50;16.17;;;14.57;;
2724;SDS011;1370;52.596;13.112;2022-09-25T06:51:18;15.47;;;13.63;;
2724;SDS011;1370;52.596;13.112;2022-09-25T06:53:43;15.27;;;13.63;;
2724;SDS011;1370;52.596;13.112;2022-09-25T06:56:08;14.47;;;13.37;;
2724;SDS011;1370;52.596;13.112;2022-09-25T06:58:34;14.27;;;12.80;;
2724;SDS011;1370;52.596;13.112;2022-09-25T07:01:00;15.23;;;13.93;;
2724;SDS011;1370;52.596;13.112;2022-09-25T07:03:25;18.40;;;15.37;;
2724;SDS011;1370;52.596;13.112;2022-09-25T07:06:09;15.80;;;14.30;;
2724;SDS011;1370;52.596;13.112;2022-09-25T07:08:37;16.33;;;14.63;;
2724;SDS011;1370;52.596;13.112;2022-09-25T07:11:02;15.80;;;13.73;;
2724;SDS011;1370;52.596;13.112;2022-09-25T07:13:28;16.73;;;15.13;;
2724;SDS011;1370;52.596;13.112;2022-09-25T07:15:56;14.33;;;13.20;;
2724;SDS011;1370;52.596;13.112;2022-09-25T07:18:25;14.63;;;13.30;;
2724;SDS011;1370;52.596;13.112;2022-09-25T07:20:51;14.23;;;13.07;;
2724;SDS011;1370;52.596;13.112;2022-09-25T07:23:17;14.77;;;13.00;;
2724;SDS011;1370;52.596;13.112;2022-09-25T07:25:44;16.23;;;13.87;;
2724;SDS011;1370;52.596;13.112;2022-09-25T07:28:10;15.90;;;14.30;;
2724;SDS011;1370;52.596;13.112;2022-09-25T07:30:39;16.53;;;13.87;;
2724;SDS011;1370;52.596;13.112;2022-09-25T07:33:07;14.23;;;13.07;;
2724;SDS011;1370;52.596;13.112;2022-09-25T07:35:33;18.03;;;15.57;;
2724;SDS011;1370;52.596;13.112;2022-09-25T07:37:58;14.60;;;13.27;;
2724;SDS011;1370;52.596;13.112;2022-09-25T07:40:24;17.70;;;13.30;;
2724;SDS011;1370;52.596;13.112;2022-09-25T07:42:58;14.63;;;13.10;;
2724;SDS011;1370;52.596;13.112;2022-09-25T07:45:24;15.20;;;13.70;;
2724;SDS011;1370;52.596;13.112;2022-09-25T07:47:49;14.47;;;13.10;;
2724;SDS011;1370;52.596;13.112;2022-09-25T07:50:14;15.53;;;14.00;;
2724;SDS011;1370;52.596;13.112;2022-09-25T07:52:40;16.13;;;14.63;;
2724;SDS011;1370;52.596;13.112;2022-09-25T07:55:09;15.77;;;14.40;;
2724;SDS011;1370;52.596;13.112;2022-09-25T07:57:47;15.23;;;13.97;;
2724;SDS011;1370;52.596;13.112;2022-09-25T08:00:14;16.50;;;13.83;;
2724;SDS011;1370;52.596;13.112;2022-09-25T08:02:39;16.40;;;15.00;;
2724;SDS011;1370;52.596;13.112;2022-09-25T08:05:05;14.50;;;13.00;;
2724;SDS011;1370;52.596;13.112;2022-09-25T08:07:31;16.73;;;15.00;;
2724;SDS011;1370;52.596;13.112;2022-09-25T08:09:56;14.07;;;13.00;;
2724;SDS011;1370;52.596;13.112;2022-09-25T08:12:21;14.40;;;12.70;;
2724;SDS011;1370;52.596;13.112;2022-09-25T08:14:50;14.23;;;12.87;;
2724;SDS011;1370;52.596;13.112;2022-09-25T08:17:16;14.33;;;12.90;;
2724;SDS011;1370;52.596;13.112;2022-09-25T08:19:42;14.67;;;13.40;;
2724;SDS011;1370;52.596;13.112;2022-09-25T08:22:08;15.37;;;13.87;;
2724;SDS011;1370;52.596;13.112;2022-09-25T08:24:33;15.03;;;13.70;;
2724;SDS011;1370;52.596;13.112;2022-09-25T08:26:58;15.13;;;13.43;;
2724;SDS011;1370;52.596;13.112;2022-09-25T08:29:23;18.00;;;14.47;;
2724;SDS011;1370;52.596;13.112;2022-09-25T08:31:49;15.10;;;13.57;;
2724;SDS011;1370;52.596;13.112;2022-09-25T08:34:15;15.07;;;13.67;;
2724;SDS011;1370;52.596;13.112;2022-09-25T08:36:41;14.23;;;13.03;;
2724;SDS011;1370;52.596;13.112;2022-09-25T08:39:06;15.17;;;13.77;;
2724;SDS011;1370;52.596;13.112;2022-09-25T08:41:33;15.27;;;13.67;;
2724;SDS011;1370;52.596;13.112;2022-09-25T08:44:13;17.70;;;15.20;;
2724;SDS011;1370;52.596;13.112;2022-09-25T08:46:58;15.53;;;13.87;;
2724;SDS011;1370;52.596;13.112;2022-09-25T08:49:49;18.27;;;15.97;;
2724;SDS011;1370;52.596;13.112;2022-09-25T08:52:24;14.23;;;12.93;;
2724;SDS011;1370;52.596;13.112;2022-09-25T08:54:49;15.17;;;13.57;;
2724;SDS011;1370;52.596;13.112;2022-09-25T09:00:00;19.80;;;12.40;;
2724;SDS011;1370;52.596;13.112;2022-09-25T09:02:41;15.67;;;14.27;;
2724;SDS011;1370;52.596;13.112;2022-09-25T09:05:19;14.50;;;13.03;;
2724;SDS011;1370;52.596;13.112;2022-09-25T09:07:49;16.63;;;15.03;;
2724;SDS011;1370;52.596;13.112;2022-09-25T09:15:51;15.30;;;14.00;;
2724;SDS011;1370;52.596;13.112;2022-09-25T09:18:22;13.53;;;12.23;;
2724;SDS011;1370;52.596;13.112;2022-09-25T09:20:53;13.87;;;11.97;;
2724;SDS011;1370;52.596;13.112;2022-09-25T09:23:21;16.43;;;13.90;;
2724;SDS011;1370;52.596;13.112;2022-09-25T09:25:54;14.33;;;13.13;;
2724;SDS011;1370;52.596;13.112;2022-09-25T09:28:49;15.37;;;13.80;;
2724;SDS011;1370;52.596;13.112;2022-09-25T09:37:00;16.20;;;14.70;;
2724;SDS011;1370;52.596;13.112;2022-09-25T09:39:38;17.60;;;15.60;;
2724;SDS011;1370;52.596;13.112;2022-09-25T09:44:57;13.40;;;12.13;;
2724;SDS011;1370;52.596;13.112;2022-09-25T09:48:04;15.63;;;14.20;;
2724;SDS011;1370;52.596;13.112;2022-09-25T09:50:44;15.73;;;14.37;;
2724;SDS011;1370;52.596;13.112;2022-09-25T09:56:25;14.93;;;13.10;;
2724;SDS011;1370;52.596;13.112;2022-09-25T09:58:54;11.30;;;10.20;;
2724;SDS011;1370;52.596;13.112;2022-09-25T10:01:22;12.47;;;11.43;;
2724;SDS011;1370;52.596;13.112;2022-09-25T10:03:49;12.77;;;11.77;;
2724;SDS011;1370;52.596;13.112;2022-09-25T10:06:18;11.53;;;10.63;;
2724;SDS011;1370;52.596;13.112;2022-09-25T10:08:44;12.23;;;11.33;;
2724;SDS011;1370;52.596;13.112;2022-09-25T10:11:12;12.73;;;11.43;;
2724;SDS011;1370;52.596;13.112;2022-09-25T10:13:39;12.07;;;10.87;;
2724;SDS011;1370;52.596;13.112;2022-09-25T10:16:05;14.93;;;12.80;;
2724;SDS011;1370;52.596;13.112;2022-09-25T10:18:50;11.67;;;10.63;;
2724;SDS011;1370;52.596;13.112;2022-09-25T10:21:18;12.03;;;11.07;;
2724;SDS011;1370;52.596;13.112;2022-09-25T10:28:50;11.60;;;10.60;;
2724;SDS011;1370;52.596;13.112;2022-09-25T10:31:16;11.63;;;10.53;;
2724;SDS011;1370;52.596;13.112;2022-09-25T10:33:42;10.53;;;9.70;;
2724;SDS011;1370;52.596;13.112;2022-09-25T10:36:36;10.67;;;9.40;;
2724;SDS011;1370;52.596;13.112;2022-09-25T10:39:03;10.87;;;9.87;;
2724;SDS011;1370;52.596;13.112;2022-09-25T10:41:31;10.30;;;9.40;;
2724;SDS011;1370;52.596;13.112;2022-09-25T10:44:08;11.73;;;9.97;;
2724;SDS011;1370;52.596;13.112;2022-09-25T10:46:44;9.67;;;8.50;;
2724;SDS011;1370;52.596;13.112;2022-09-25T10:49:28;9.47;;;8.53;;
2724;SDS011;1370;52.596;13.112;2022-09-25T10:52:12;8.67;;;7.97;;
2724;SDS011;1370;52.596;13.112;2022-09-25T10:54:45;8.83;;;8.13;;
2724;SDS011;1370;52.596;13.112;2022-09-25T10:59:50;9.50;;;8.53;;
2724;SDS011;1370;52.596;13.112;2022-09-25T11:02:21;9.00;;;8.20;;
2724;SDS011;1370;52.596;13.112;2022-09-25T11:04:53;9.40;;;8.50;;
2724;SDS011;1370;52.596;13.112;2022-09-25T11:07:20;12.80;;;9.00;;
2724;SDS011;1370;52.596;13.112;2022-09-25T11:09:51;9.77;;;8.97;;
2724;SDS011;1370;52.596;13.112;2022-09-25T11:12:20;9.60;;;8.80;;
2724;SDS011;1370;52.596;13.112;2022-09-25T11:14:58;11.27;;;8.83;;
2724;SDS011;1370;52.596;13.112;2022-09-25T11:17:32;9.97;;;9.07;;
2724;SDS011;1370;52.596;13.112;2022-09-25T11:22:40;8.20;;;7.47;;
2724;SDS011;1370;52.596;13.112;2022-09-25T11:28:14;9.80;;;8.80;;
2724;SDS011;1370;52.596;13.112;2022-09-25T11:30:50;9.97;;;8.97;;
2724;SDS011;1370;52.596;13.112;2022-09-25T11:33:29;8.63;;;7.90;;
2724;SDS011;1370;52.596;13.112;2022-09-25T11:36:02;9.10;;;8.30;;
2724;SDS011;1370;52.596;13.112;2022-09-25T11:38:33;8.87;;;8.07;;
2724;SDS011;1370;52.596;13.112;2022-09-25T11:41:35;9.93;;;9.03;;
2724;SDS011;1370;52.596;13.112;2022-09-25T11:44:28;7.93;;;7.23;;
2724;SDS011;1370;52.596;13.112;2022-09-25T11:49:30;11.13;;;7.97;;
2724;SDS011;1370;52.596;13.112;2022-09-25T11:54:52;6.13;;;5.63;;
2724;SDS011;1370;52.596;13.112;2022-09-25T12:00:20;8.33;;;7.13;;
2724;SDS011;1370;52.596;13.112;2022-09-25T12:08:27;32.70;;;7.10;;
2724;SDS011;1370;52.596;13.112;2022-09-25T12:14:25;7.30;;;6.70;;
2724;SDS011;1370;52.596;13.112;2022-09-25T12:17:14;6.77;;;6.27;;
2724;SDS011;1370;52.596;13.112;2022-09-25T12:26:15;7.13;;;6.73;;
2724;SDS011;1370;52.596;13.112;2022-09-25T12:29:02;7.87;;;6.93;;
2724;SDS011;1370;52.596;13.112;2022-09-25T12:34:25;7.30;;;6.70;;
2724;SDS011;1370;52.596;13.112;2022-09-25T12:37:10;7.50;;;7.00;;
2724;SDS011;1370;52.596;13.112;2022-09-25T12:39:55;8.00;;;7.40;;
2724;SDS011;1370;52.596;13.112;2022-09-25T12:42:30;7.60;;;7.07;;
2724;SDS011;1370;52.596;13.112;2022-09-25T12:45:12;7.17;;;6.57;;
2724;SDS011;1370;52.596;13.112;2022-09-25T12:47:53;8.57;;;7.87;;
2724;SDS011;1370;52.596;13.112;2022-09-25T12:50:43;7.70;;;7.10;;
2724;SDS011;1370;52.596;13.112;2022-09-25T12:53:20;6.90;;;6.40;;
2724;SDS011;1370;52.596;13.112;2022-09-25T12:55:51;7.83;;;7.23;;
2724;SDS011;1370;52.596;13.112;2022-09-25T12:58:35;7.77;;;7.17;;
2724;SDS011;1370;52.596;13.112;2022-09-25T13:01:18;9.93;;;9.13;;
2724;SDS011;1370;52.596;13.112;2022-09-25T13:06:37;9.30;;;8.50;;
2724;SDS011;1370;52.596;13.112;2022-09-25T13:12:01;8.40;;;7.80;;
2724;SDS011;1370;52.596;13.112;2022-09-25T13:14:34;7.93;;;7.33;;
2724;SDS011;1370;52.596;13.112;2022-09-25T13:17:03;7.53;;;7.00;;
2724;SDS011;1370;52.596;13.112;2022-09-25T13:19:29;8.37;;;7.77;;
2724;SDS011;1370;52.596;13.112;2022-09-25T13:21:58;8.10;;;7.40;;
2724;SDS011;1370;52.596;13.112;2022-09-25T13:24:25;9.93;;;8.10;;
2724;SDS011;1370;52.596;13.112;2022-09-25T13:26:50;10.57;;;7.50;;
2724;SDS011;1370;52.596;13.112;2022-09-25T13:29:33;7.30;;;6.70;;
2724;SDS011;1370;52.596;13.112;2022-09-25T13:32:24;10.47;;;7.50;;
2724;SDS011;1370;52.596;13.112;2022-09-25T13:34:53;8.00;;;7.00;;
2724;SDS011;1370;52.596;13.112;2022-09-25T13:37:22;7.67;;;7.10;;
2724;SDS011;1370;52.596;13.112;2022-09-25T13:39:52;8.90;;;8.00;;
2724;SDS011;1370;52.596;13.112;2022-09-25T13:42:37;9.63;;;7.73;;
2724;SDS011;1370;52.596;13.112;2022-09-25T13:47:58;8.43;;;7.80;;
2724;SDS011;1370;52.596;13.112;2022-09-25T13:53:51;9.30;;;8.30;;
2724;SDS011;1370;52.596;13.112;2022-09-25T13:56:23;10.10;;;8.93;;
2724;SDS011;1370;52.596;13.112;2022-09-25T13:59:00;9.23;;;8.43;;
2724;SDS011;1370;52.596;13.112;2022-09-25T14:01:45;9.90;;;9.10;;
2724;SDS011;1370;52.596;13.112;2022-09-25T14:06:40;9.67;;;7.67;;
2724;SDS011;1370;52.596;13.112;2022-09-25T14:09:09;13.23;;;8.67;;
2724;SDS011;1370;52.596;13.112;2022-09-25T14:11:36;9.10;;;8.20;;
2724;SDS011;1370;52.596;13.112;2022-09-25T14:14:15;8.87;;;8.10;;
2724;SDS011;1370;52.596;13.112;2022-09-25T14:16:54;10.43;;;8.80;;
2724;SDS011;1370;52.596;13.112;2022-09-25T14:19:23;8.80;;;8.20;;
2724;SDS011;1370;52.596;13.112;2022-09-25T14:21:51;9.90;;;8.93;;
2724;SDS011;1370;52.596;13.112;2022-09-25T14:24:17;10.33;;;9.47;;
2724;SDS011;1370;52.596;13.112;2022-09-25T14:26:45;10.53;;;9.60;;
2724;SDS011;1370;52.596;13.112;2022-09-25T14:29:14;11.07;;;10.10;;
2724;SDS011;1370;52.596;13.112;2022-09-25T14:40:35;10.83;;;9.90;;
2724;SDS011;1370;52.596;13.112;2022-09-25T14:46:18;10.17;;;9.27;;
2724;SDS011;1370;52.596;13.112;2022-09-25T14:51:25;8.87;;;8.07;;
2724;SDS011;1370;52.596;13.112;2022-09-25T14:53:54;8.23;;;7.53;;
2724;SDS011;1370;52.596;13.112;2022-09-25T14:56:22;8.70;;;8.00;;
2724;SDS011;1370;52.596;13.112;2022-09-25T14:58:50;8.67;;;7.87;;
2724;SDS011;1370;52.596;13.112;2022-09-25T15:01:22;7.67;;;7.07;;
2724;SDS011;1370;52.596;13.112;2022-09-25T15:03:50;8.77;;;7.97;;
2724;SDS011;1370;52.596;13.112;2022-09-25T15:06:23;11.07;;;8.30;;
2724;SDS011;1370;52.596;13.112;2022-09-25T15:08:52;7.87;;;7.07;;
2724;SDS011;1370;52.596;13.112;2022-09-25T15:11:19;8.33;;;7.60;;
2724;SDS011;1370;52.596;13.112;2022-09-25T15:13:45;10.27;;;8.73;;
2724;SDS011;1370;52.596;13.112;2022-09-25T15:16:15;8.20;;;7.40;;
2724;SDS011;1370;52.596;13.112;2022-09-25T15:19:01;7.33;;;6.73;;
2724;SDS011;1370;52.596;13.112;2022-09-25T15:21:32;8.20;;;7.50;;
2724;SDS011;1370;52.596;13.112;2022-09-25T15:24:08;7.33;;;6.70;;
2724;SDS011;1370;52.596;13.112;2022-09-25T15:26:37;7.70;;;6.73;;
2724;SDS011;1370;52.596;13.112;2022-09-25T15:29:16;8.00;;;7.30;;
2724;SDS011;1370;52.596;13.112;2022-09-25T15:31:44;6.67;;;6.17;;
2724;SDS011;1370;52.596;13.112;2022-09-25T15:34:14;8.50;;;7.70;;
2724;SDS011;1370;52.596;13.112;2022-09-25T15:36:44;6.83;;;6.30;;
2724;SDS011;1370;52.596;13.112;2022-09-25T15:39:14;10.00;;;7.07;;
2724;SDS011;1370;52.596;13.112;2022-09-25T15:41:41;8.33;;;6.60;;
2724;SDS011;1370;52.596;13.112;2022-09-25T15:46:45;6.37;;;5.83;;
2724;SDS011;1370;52.596;13.112;2022-09-25T15:49:26;6.93;;;6.23;;
2724;SDS011;1370;52.596;13.112;2022-09-25T15:51:56;7.50;;;5.77;;
2724;SDS011;1370;52.596;13.112;2022-09-25T15:57:06;6.00;;;5.50;;
2724;SDS011;1370;52.596;13.112;2022-09-25T15:59:37;6.00;;;5.50;;
2724;SDS011;1370;52.596;13.112;2022-09-25T16:02:26;6.17;;;5.77;;
2724;SDS011;1370;52.596;13.112;2022-09-25T16:05:11;6.33;;;5.80;;
2724;SDS011;1370;52.596;13.112;2022-09-25T16:07:38;6.50;;;6.00;;
2724;SDS011;1370;52.596;13.112;2022-09-25T16:10:25;5.37;;;4.90;;
2724;SDS011;1370;52.596;13.112;2022-09-25T16:12:48;7.20;;;6.60;;
2724;SDS011;1370;52.596;13.112;2022-09-25T16:17:54;6.70;;;6.20;;
2724;SDS011;1370;52.596;13.112;2022-09-25T16:22:48;8.30;;;7.57;;
2724;SDS011;1370;52.596;13.112;2022-09-25T16:25:20;7.50;;;6.90;;
2724;SDS011;1370;52.596;13.112;2022-09-25T16:27:49;9.03;;;7.80;;
2724;SDS011;1370;52.596;13.112;2022-09-25T16:30:20;7.27;;;6.60;;
2724;SDS011;1370;52.596;13.112;2022-09-25T16:32:50;7.30;;;6.60;;
2724;SDS011;1370;52.596;13.112;2022-09-25T16:35:28;8.37;;;7.67;;
2724;SDS011;1370;52.596;13.112;2022-09-25T16:38:00;8.00;;;7.27;;
2724;SDS011;1370;52.596;13.112;2022-09-25T16:40:26;8.77;;;8.03;;
2724;SDS011;1370;52.596;13.112;2022-09-25T16:42:59;7.80;;;7.20;;
2724;SDS011;1370;52.596;13.112;2022-09-25T16:45:26;6.83;;;6.23;;
2724;SDS011;1370;52.596;13.112;2022-09-25T16:47:55;12.57;;;7.13;;
2724;SDS011;1370;52.596;13.112;2022-09-25T16:50:22;8.30;;;7.50;;
2724;SDS011;1370;52.596;13.112;2022-09-25T16:52:49;15.00;;;9.87;;
2724;SDS011;1370;52.596;13.112;2022-09-25T16:55:19;18.13;;;9.83;;
2724;SDS011;1370;52.596;13.112;2022-09-25T16:57:49;11.80;;;8.80;;